createdAt,value
2018-07-06T00:00:47.928Z,3.40
2018-07-06T00:01:47.947Z,4.70
2018-07-06T00:02:47.969Z,3.40
2018-07-06T00:03:47.989Z,3.90
2018-07-06T00:04:48.014Z,4.30
2018-07-06T00:05:48.032Z,4.50
2018-07-06T00:06:48.055Z,3.40
2018-07-06T00:07:48.077Z,3.10
2018-07-06T00:08:48.097Z,3.70
2018-07-06T00:09:48.118Z,3.10
2018-07-06T00:10:48.137Z,3.40
2018-07-06T00:11:48.161Z,3.70
2018-07-06T00:12:48.183Z,3.70
2018-07-06T00:13:48.202Z,3.80
2018-07-06T00:14:48.244Z,4.10
2018-07-06T00:15:48.245Z,3.30
2018-07-06T00:16:48.275Z,3.50
2018-07-06T00:17:48.286Z,4.10
2018-07-06T00:18:48.306Z,3.40
2018-07-06T00:19:48.331Z,4.10
2018-07-06T00:20:48.353Z,3.50
2018-07-06T00:21:48.370Z,3.40
2018-07-06T00:22:48.391Z,3.30
2018-07-06T00:23:48.413Z,3.70
2018-07-06T00:24:48.435Z,3.40
2018-07-06T00:25:48.457Z,3.30
2018-07-06T00:26:48.476Z,3.20
2018-07-06T00:27:48.496Z,3.10
2018-07-06T00:28:48.518Z,3.00
2018-07-06T00:29:48.539Z,4.20
2018-07-06T00:30:48.559Z,3.30
2018-07-06T00:31:48.585Z,3.00
2018-07-06T00:32:48.606Z,3.10
2018-07-06T00:33:48.622Z,3.20
2018-07-06T00:34:48.645Z,2.90
2018-07-06T00:35:48.668Z,3.10
2018-07-06T00:36:48.739Z,4.20
2018-07-06T00:37:48.706Z,3.70
2018-07-06T00:38:48.731Z,3.00
2018-07-06T00:39:48.753Z,3.00
2018-07-06T00:40:48.772Z,2.90
2018-07-06T00:41:48.791Z,3.10
2018-07-06T00:42:48.815Z,4.40
2018-07-06T00:43:48.833Z,3.20
2018-07-06T00:44:48.854Z,3.30
2018-07-06T00:45:48.878Z,3.30
2018-07-06T00:46:48.897Z,3.30
2018-07-06T00:47:48.917Z,2.80
2018-07-06T00:48:48.993Z,4.20
2018-07-06T00:49:48.960Z,3.00
2018-07-06T00:50:48.979Z,3.90
2018-07-06T00:51:49.006Z,3.00
2018-07-06T00:52:49.025Z,3.40
2018-07-06T00:53:49.044Z,2.80
2018-07-06T00:54:49.105Z,3.70
2018-07-06T00:55:49.085Z,3.50
2018-07-06T00:56:49.106Z,3.80
2018-07-06T00:57:49.130Z,3.00
2018-07-06T00:58:49.148Z,3.10
2018-07-06T00:59:49.168Z,3.30
2018-07-06T01:00:49.193Z,3.20
2018-07-06T01:01:49.284Z,4.70
2018-07-06T01:02:49.231Z,3.40
2018-07-06T01:03:49.254Z,3.20
2018-07-06T01:04:49.274Z,3.10
2018-07-06T01:05:49.293Z,3.50
2018-07-06T01:06:49.318Z,2.90
2018-07-06T01:07:49.341Z,4.00
2018-07-06T01:08:49.357Z,4.00
2018-07-06T01:09:49.379Z,3.50
2018-07-06T01:10:49.402Z,5.10
2018-07-06T01:11:49.421Z,3.10
2018-07-06T01:12:49.444Z,3.30
2018-07-06T01:13:49.464Z,3.20
2018-07-06T01:14:49.482Z,4.50
2018-07-06T01:15:49.506Z,3.50
2018-07-06T01:16:49.528Z,4.70
2018-07-06T01:17:49.545Z,3.80
2018-07-06T01:18:49.569Z,3.40
2018-07-06T01:19:49.590Z,3.50
2018-07-06T01:20:49.608Z,3.00
2018-07-06T01:21:49.629Z,3.20
2018-07-06T01:22:49.653Z,4.70
2018-07-06T01:23:49.672Z,2.80
2018-07-06T01:24:49.696Z,3.20
2018-07-06T01:25:49.715Z,3.70
2018-07-06T01:26:49.736Z,3.60
2018-07-06T01:27:49.756Z,3.30
2018-07-06T01:28:49.776Z,3.90
2018-07-06T01:29:49.797Z,2.70
2018-07-06T01:30:49.817Z,2.90
2018-07-06T01:31:49.841Z,3.30
2018-07-06T01:32:49.861Z,3.20
2018-07-06T01:33:49.882Z,2.70
2018-07-06T01:34:49.901Z,3.20
2018-07-06T01:35:49.928Z,4.00
2018-07-06T01:36:49.945Z,3.40
2018-07-06T01:37:49.963Z,3.10
2018-07-06T01:38:49.986Z,3.80
2018-07-06T01:39:50.008Z,3.50
2018-07-06T01:40:50.033Z,3.10
2018-07-06T01:41:50.048Z,3.20
2018-07-06T01:42:50.071Z,2.90
2018-07-06T01:43:50.093Z,3.70
2018-07-06T01:44:50.122Z,3.50
2018-07-06T01:45:50.135Z,3.20
2018-07-06T01:46:50.154Z,3.20
2018-07-06T01:47:50.177Z,3.10
2018-07-06T01:48:50.196Z,3.50
2018-07-06T01:49:50.216Z,3.80
2018-07-06T01:50:50.237Z,4.20
2018-07-06T01:51:50.262Z,3.10
2018-07-06T01:52:50.281Z,3.30
2018-07-06T01:53:50.303Z,4.70
2018-07-06T01:54:50.325Z,4.10
2018-07-06T01:55:50.342Z,3.50
2018-07-06T01:56:50.365Z,3.40
2018-07-06T01:57:50.386Z,4.30
2018-07-06T01:58:50.405Z,3.90
2018-07-06T01:59:50.429Z,4.00
2018-07-06T02:00:50.451Z,3.70
2018-07-06T02:01:50.471Z,4.80
2018-07-06T02:02:50.489Z,4.30
2018-07-06T02:03:50.511Z,4.30
2018-07-06T02:04:50.533Z,4.00
2018-07-06T02:05:50.556Z,4.40
2018-07-06T02:06:50.578Z,4.90
2018-07-06T02:07:50.601Z,4.60
2018-07-06T02:08:50.619Z,4.60
2018-07-06T02:09:50.640Z,4.40
2018-07-06T02:10:50.659Z,4.10
2018-07-06T02:11:50.679Z,3.80
2018-07-06T02:12:50.702Z,4.60
2018-07-06T02:13:50.724Z,4.40
2018-07-06T02:14:50.743Z,4.40
2018-07-06T02:15:50.765Z,5.00
2018-07-06T02:16:50.789Z,5.50
2018-07-06T02:17:50.808Z,4.60
2018-07-06T02:18:50.825Z,4.00
2018-07-06T02:19:50.851Z,4.10
2018-07-06T02:20:50.871Z,4.20
2018-07-06T02:21:50.890Z,4.40
2018-07-06T02:22:50.913Z,4.80
2018-07-06T02:23:50.935Z,4.30
2018-07-06T02:24:50.952Z,3.50
2018-07-06T02:25:50.973Z,4.20
2018-07-06T02:26:50.997Z,3.90
2018-07-06T02:27:51.014Z,3.90
2018-07-06T02:28:51.039Z,4.60
2018-07-06T02:29:51.059Z,4.60
2018-07-06T02:30:51.084Z,4.50
2018-07-06T02:31:51.102Z,5.30
2018-07-06T02:32:51.120Z,4.40
2018-07-06T02:33:51.145Z,5.00
2018-07-06T02:34:51.161Z,4.10
2018-07-06T02:35:51.187Z,5.20
2018-07-06T02:36:51.204Z,4.80
2018-07-06T02:37:51.226Z,5.00
2018-07-06T02:38:51.245Z,5.70
2018-07-06T02:39:51.267Z,5.30
2018-07-06T02:40:51.288Z,4.70
2018-07-06T02:41:51.312Z,4.80
2018-07-06T02:42:51.330Z,5.00
2018-07-06T02:43:51.353Z,6.00
2018-07-06T02:44:51.374Z,4.80
2018-07-06T02:45:51.393Z,6.30
2018-07-06T02:46:51.413Z,5.50
2018-07-06T02:47:51.439Z,5.20
2018-07-06T02:48:51.459Z,6.20
2018-07-06T02:49:51.479Z,5.10
2018-07-06T02:50:51.497Z,5.30
2018-07-06T02:51:51.519Z,6.00
2018-07-06T02:52:51.544Z,5.50
2018-07-06T02:53:51.560Z,5.40
2018-07-06T02:54:51.582Z,5.20
2018-07-06T02:55:51.606Z,7.20
2018-07-06T02:56:51.630Z,5.50
2018-07-06T02:57:51.648Z,5.50
2018-07-06T02:58:51.666Z,5.90
2018-07-06T02:59:51.691Z,5.20
2018-07-06T03:00:51.709Z,5.40
2018-07-06T03:01:51.731Z,7.10
2018-07-06T03:02:51.750Z,5.80
2018-07-06T03:03:51.776Z,5.20
2018-07-06T03:04:51.793Z,5.60
2018-07-06T03:05:51.814Z,6.20
2018-07-06T03:06:51.836Z,5.60
2018-07-06T03:07:51.856Z,5.40
2018-07-06T03:08:51.884Z,5.00
2018-07-06T03:09:51.900Z,5.70
2018-07-06T03:10:51.923Z,6.70
2018-07-06T03:11:51.940Z,6.50
2018-07-06T03:12:51.961Z,5.50
2018-07-06T03:13:51.983Z,5.70
2018-07-06T03:14:52.003Z,5.80
2018-07-06T03:15:52.023Z,6.20
2018-07-06T03:16:52.046Z,5.50
2018-07-06T03:17:52.068Z,5.90
2018-07-06T03:18:52.091Z,6.50
2018-07-06T03:19:52.109Z,5.80
2018-07-06T03:20:52.131Z,5.40
2018-07-06T03:21:52.149Z,5.30
2018-07-06T03:22:52.172Z,5.90
2018-07-06T03:23:52.193Z,5.90
2018-07-06T03:24:52.218Z,6.50
2018-07-06T03:25:52.233Z,5.90
2018-07-06T03:26:52.255Z,5.90
2018-07-06T03:27:52.375Z,6.20
2018-07-06T03:28:52.435Z,7.30
2018-07-06T03:29:52.316Z,6.00
2018-07-06T03:30:52.342Z,6.50
2018-07-06T03:31:52.362Z,5.70
2018-07-06T03:32:52.381Z,5.90
2018-07-06T03:33:52.403Z,6.00
2018-07-06T03:34:52.426Z,6.10
2018-07-06T03:35:52.446Z,6.50
2018-07-06T03:36:52.470Z,6.10
2018-07-06T03:37:52.484Z,6.50
2018-07-06T03:38:52.539Z,7.20
2018-07-06T03:39:52.529Z,6.50
2018-07-06T03:40:52.551Z,7.00
2018-07-06T03:41:52.572Z,6.30
2018-07-06T03:42:52.593Z,6.90
2018-07-06T03:43:52.616Z,6.80
2018-07-06T03:44:52.636Z,6.50
2018-07-06T03:45:52.653Z,6.50
2018-07-06T03:46:52.677Z,6.90
2018-07-06T03:47:52.698Z,6.90
2018-07-06T03:48:52.720Z,6.40
2018-07-06T03:49:52.740Z,6.70
2018-07-06T03:50:52.764Z,6.50
2018-07-06T03:51:52.779Z,6.90
2018-07-06T03:52:52.804Z,7.00
2018-07-06T03:53:52.822Z,8.50
2018-07-06T03:54:52.876Z,6.20
2018-07-06T03:55:52.867Z,7.80
2018-07-06T03:56:52.890Z,7.00
2018-07-06T03:57:52.907Z,7.00
2018-07-06T03:58:52.927Z,7.00
2018-07-06T03:59:52.951Z,6.60
2018-07-06T04:00:52.970Z,6.30
2018-07-06T04:01:52.990Z,6.50
2018-07-06T04:02:53.011Z,6.50
2018-07-06T04:03:53.033Z,7.30
2018-07-06T04:04:53.056Z,6.30
2018-07-06T04:05:53.076Z,7.10
2018-07-06T04:06:53.097Z,6.90
2018-07-06T04:07:53.116Z,7.70
2018-07-06T04:08:53.139Z,6.40
2018-07-06T04:09:53.160Z,6.30
2018-07-06T04:10:53.179Z,6.30
2018-07-06T04:11:53.199Z,6.40
2018-07-06T04:12:53.223Z,6.60
2018-07-06T04:13:53.240Z,6.90
2018-07-06T04:14:53.271Z,6.20
2018-07-06T04:15:53.300Z,7.10
2018-07-06T04:16:53.308Z,6.50
2018-07-06T04:17:53.327Z,7.80
2018-07-06T04:18:53.349Z,7.50
2018-07-06T04:19:53.371Z,7.80
2018-07-06T04:20:53.392Z,7.40
2018-07-06T04:21:53.411Z,7.80
2018-07-06T04:22:53.431Z,8.20
2018-07-06T04:23:53.454Z,8.20
2018-07-06T04:24:53.476Z,8.80
2018-07-06T04:25:53.495Z,7.90
2018-07-06T04:26:53.518Z,7.40
2018-07-06T04:27:53.536Z,7.30
2018-07-06T04:28:53.557Z,7.20
2018-07-06T04:29:53.580Z,7.90
2018-07-06T04:30:53.598Z,8.20
2018-07-06T04:31:53.622Z,8.70
2018-07-06T04:32:53.641Z,8.30
2018-07-06T04:33:53.661Z,9.30
2018-07-06T04:34:53.684Z,8.60
2018-07-06T04:35:53.705Z,8.90
2018-07-06T04:36:53.727Z,8.10
2018-07-06T04:37:53.748Z,9.50
2018-07-06T04:38:53.767Z,9.10
2018-07-06T04:39:53.790Z,8.00
2018-07-06T04:40:53.810Z,8.50
2018-07-06T04:41:53.832Z,8.60
2018-07-06T04:42:53.854Z,9.10
2018-07-06T04:43:53.875Z,9.00
2018-07-06T04:44:53.895Z,9.10
2018-07-06T04:45:53.914Z,10.10
2018-07-06T04:46:53.939Z,10.10
2018-07-06T04:47:53.956Z,10.00
2018-07-06T04:48:53.977Z,9.70
2018-07-06T04:49:54.113Z,9.30
2018-07-06T04:50:54.027Z,11.90
2018-07-06T04:51:54.042Z,9.70
2018-07-06T04:52:54.065Z,9.60
2018-07-06T04:53:54.085Z,10.00
2018-07-06T04:54:54.105Z,10.00
2018-07-06T04:55:54.125Z,10.80
2018-07-06T04:56:54.149Z,10.60
2018-07-06T04:57:54.167Z,10.60
2018-07-06T04:58:54.190Z,10.50
2018-07-06T04:59:54.247Z,11.60
2018-07-06T05:00:54.232Z,12.00
2018-07-06T05:01:54.250Z,9.50
2018-07-06T05:02:54.274Z,9.70
2018-07-06T05:03:54.295Z,12.10
2018-07-06T05:04:54.314Z,10.70
2018-07-06T05:05:54.335Z,11.50
2018-07-06T05:06:54.362Z,10.60
2018-07-06T05:07:54.508Z,11.00
2018-07-06T05:08:54.402Z,10.70
2018-07-06T05:09:54.418Z,10.60
2018-07-06T05:10:54.443Z,10.30
2018-07-06T05:11:54.467Z,11.00
2018-07-06T05:12:54.484Z,12.00
2018-07-06T05:13:54.503Z,11.40
2018-07-06T05:14:54.527Z,11.30
2018-07-06T05:15:54.548Z,12.40
2018-07-06T05:16:54.605Z,15.00
2018-07-06T05:17:54.590Z,12.60
2018-07-06T05:18:54.612Z,12.90
2018-07-06T05:19:54.630Z,13.00
2018-07-06T05:20:54.654Z,11.70
2018-07-06T05:21:54.674Z,11.20
2018-07-06T05:22:54.693Z,11.50
2018-07-06T05:23:54.716Z,11.40
2018-07-06T05:24:54.736Z,12.20
2018-07-06T05:25:54.756Z,12.20
2018-07-06T05:26:54.779Z,11.40
2018-07-06T05:27:54.799Z,11.30
2018-07-06T05:28:54.821Z,12.60
2018-07-06T05:29:54.840Z,12.20
2018-07-06T05:30:54.862Z,11.50
2018-07-06T05:31:54.924Z,12.10
2018-07-06T05:32:54.907Z,12.20
2018-07-06T05:33:54.928Z,12.60
2018-07-06T05:34:54.946Z,13.60
2018-07-06T05:35:54.968Z,12.40
2018-07-06T05:36:54.992Z,12.40
2018-07-06T05:37:55.088Z,12.00
2018-07-06T05:38:55.034Z,12.60
2018-07-06T05:39:55.054Z,12.90
2018-07-06T05:40:55.077Z,13.70
2018-07-06T05:41:55.093Z,12.20
2018-07-06T05:42:55.118Z,12.30
2018-07-06T05:43:55.138Z,14.50
2018-07-06T05:44:55.157Z,11.80
2018-07-06T05:45:55.181Z,14.70
2018-07-06T05:46:55.201Z,12.50
2018-07-06T05:47:55.237Z,12.60
2018-07-06T05:48:55.246Z,14.90
2018-07-06T05:49:55.263Z,13.20
2018-07-06T05:50:55.283Z,12.40
2018-07-06T05:51:55.304Z,12.80
2018-07-06T05:52:55.335Z,12.30
2018-07-06T05:53:55.355Z,12.60
2018-07-06T05:54:55.367Z,12.50
2018-07-06T05:55:55.389Z,13.90
2018-07-06T05:56:55.415Z,13.90
2018-07-06T05:57:55.435Z,13.10
2018-07-06T05:58:55.452Z,13.40
2018-07-06T05:59:55.474Z,13.60
2018-07-06T06:00:55.498Z,12.60
2018-07-06T06:01:55.518Z,13.60
2018-07-06T06:02:55.538Z,14.20
2018-07-06T06:03:55.559Z,12.30
2018-07-06T06:04:55.581Z,14.10
2018-07-06T06:05:55.600Z,12.80
2018-07-06T06:06:55.625Z,13.60
2018-07-06T06:07:55.644Z,16.30
2018-07-06T06:08:55.666Z,13.20
2018-07-06T06:09:55.685Z,12.30
2018-07-06T06:10:55.707Z,13.90
2018-07-06T06:11:55.731Z,12.30
2018-07-06T06:12:55.751Z,12.90
2018-07-06T06:13:55.770Z,13.10
2018-07-06T06:14:55.871Z,12.80
2018-07-06T06:15:55.814Z,13.50
2018-07-06T06:16:55.838Z,13.20
2018-07-06T06:17:55.859Z,13.80
2018-07-06T06:18:55.942Z,20.80
2018-07-06T06:19:55.900Z,29.80
2018-07-06T06:20:55.923Z,16.70
2018-07-06T06:21:55.943Z,11.70
2018-07-06T06:22:55.963Z,12.50
2018-07-06T06:23:55.988Z,12.40
2018-07-06T06:24:56.015Z,14.20
2018-07-06T06:25:56.031Z,12.10
2018-07-06T06:26:56.052Z,12.70
2018-07-06T06:27:56.072Z,11.50
2018-07-06T06:28:56.094Z,18.30
2018-07-06T06:29:56.113Z,14.50
2018-07-06T06:30:56.135Z,14.90
2018-07-06T06:31:56.156Z,14.90
2018-07-06T06:32:56.199Z,13.20
2018-07-06T06:33:56.445Z,13.10
2018-07-06T06:34:56.275Z,12.50
2018-07-06T06:35:56.243Z,13.00
2018-07-06T06:36:56.267Z,11.10
2018-07-06T06:37:56.289Z,13.20
2018-07-06T06:38:56.314Z,11.30
2018-07-06T06:39:56.331Z,11.20
2018-07-06T06:40:56.354Z,14.30
2018-07-06T06:41:56.372Z,12.00
2018-07-06T06:42:56.398Z,10.80
2018-07-06T06:43:56.416Z,11.50
2018-07-06T06:44:56.440Z,12.00
2018-07-06T06:45:56.463Z,12.80
2018-07-06T06:46:56.484Z,13.40
2018-07-06T06:47:56.503Z,11.20
2018-07-06T06:48:56.529Z,13.30
2018-07-06T06:49:56.547Z,13.50
2018-07-06T06:50:56.569Z,12.20
2018-07-06T06:51:56.591Z,11.50
2018-07-06T06:52:56.659Z,13.10
2018-07-06T06:53:56.638Z,12.60
2018-07-06T06:54:56.658Z,11.30
2018-07-06T06:55:56.680Z,15.50
2018-07-06T06:56:56.700Z,14.10
2018-07-06T06:57:56.722Z,14.00
2018-07-06T06:58:56.799Z,12.00
2018-07-06T06:59:56.769Z,12.00
2018-07-06T07:00:56.843Z,12.10
2018-07-06T07:01:56.812Z,12.00
2018-07-06T07:02:56.836Z,12.50
2018-07-06T07:03:56.855Z,11.90
2018-07-06T07:04:56.878Z,13.50
2018-07-06T07:05:56.901Z,12.00
2018-07-06T07:06:56.924Z,13.80
2018-07-06T07:07:56.944Z,12.60
2018-07-06T07:08:56.964Z,12.30
2018-07-06T07:09:56.988Z,12.70
2018-07-06T07:10:57.007Z,13.70
2018-07-06T07:11:57.033Z,11.30
2018-07-06T07:12:57.057Z,14.00
2018-07-06T07:13:57.172Z,11.00
2018-07-06T07:14:57.099Z,11.40
2018-07-06T07:15:57.118Z,12.00
2018-07-06T07:16:57.144Z,11.40
2018-07-06T07:17:57.163Z,11.60
2018-07-06T07:18:57.189Z,11.90
2018-07-06T07:19:57.213Z,12.60
2018-07-06T07:20:57.230Z,15.00
2018-07-06T07:21:57.254Z,14.30
2018-07-06T07:22:57.274Z,14.10
2018-07-06T07:23:57.296Z,11.60
2018-07-06T07:24:57.321Z,13.10
2018-07-06T07:25:57.339Z,12.30
2018-07-06T07:26:57.362Z,13.10
2018-07-06T07:27:57.385Z,12.00
2018-07-06T07:28:57.408Z,12.30
2018-07-06T07:29:57.432Z,13.40
2018-07-06T07:30:57.455Z,12.70
2018-07-06T07:31:57.480Z,15.20
2018-07-06T07:32:57.499Z,12.00
2018-07-06T07:33:57.522Z,13.20
2018-07-06T07:34:57.543Z,14.60
2018-07-06T07:35:57.563Z,13.30
2018-07-06T07:36:57.587Z,13.40
2018-07-06T07:37:57.608Z,11.40
2018-07-06T07:38:57.943Z,11.50
2018-07-06T07:39:57.652Z,10.90
2018-07-06T07:40:57.678Z,11.90
2018-07-06T07:41:57.696Z,11.10
2018-07-06T07:42:57.721Z,11.90
2018-07-06T07:43:57.741Z,13.40
2018-07-06T07:44:57.764Z,11.70
2018-07-06T07:45:57.786Z,12.00
2018-07-06T07:46:57.810Z,11.50
2018-07-06T07:47:57.830Z,11.20
2018-07-06T07:48:57.855Z,11.30
2018-07-06T07:49:57.878Z,12.20
2018-07-06T07:50:57.901Z,11.20
2018-07-06T07:51:57.921Z,15.10
2018-07-06T07:52:57.946Z,11.10
2018-07-06T07:53:57.967Z,10.40
2018-07-06T07:54:57.993Z,11.60
2018-07-06T07:55:58.109Z,12.40
2018-07-06T07:56:58.036Z,12.20
2018-07-06T07:57:58.056Z,11.20
2018-07-06T07:58:58.081Z,10.60
2018-07-06T07:59:58.417Z,11.80
2018-07-06T08:00:58.321Z,11.50
2018-07-06T08:01:58.158Z,10.10
2018-07-06T08:02:58.172Z,10.50
2018-07-06T08:03:58.196Z,9.90
2018-07-06T08:04:58.216Z,10.20
2018-07-06T08:05:58.239Z,11.70
2018-07-06T08:06:58.263Z,11.90
2018-07-06T08:07:58.284Z,12.30
2018-07-06T08:08:58.308Z,13.40
2018-07-06T08:09:58.327Z,14.30
2018-07-06T08:10:58.351Z,12.20
2018-07-06T08:11:58.385Z,15.30
2018-07-06T08:12:58.416Z,10.10
2018-07-06T08:14:04.908Z,12.70
2018-07-06T08:14:58.446Z,9.80
2018-07-06T08:15:58.468Z,11.40
2018-07-06T08:16:58.493Z,10.90
2018-07-06T08:17:58.513Z,11.40
2018-07-06T08:18:58.536Z,12.80
2018-07-06T08:19:58.559Z,12.20
2018-07-06T08:20:58.582Z,11.60
2018-07-06T08:21:58.604Z,12.10
2018-07-06T08:22:58.631Z,14.80
2018-07-06T08:23:58.653Z,12.00
2018-07-06T08:24:58.675Z,10.50
2018-07-06T08:25:58.699Z,10.60
2018-07-06T08:26:58.722Z,9.60
2018-07-06T08:27:58.749Z,8.60
2018-07-06T08:28:58.774Z,9.60
2018-07-06T08:29:58.795Z,8.00
2018-07-06T08:30:58.818Z,8.00
2018-07-06T08:31:58.846Z,9.50
2018-07-06T08:32:58.927Z,8.70
2018-07-06T08:33:58.898Z,9.30
2018-07-06T08:34:58.917Z,9.50
2018-07-06T08:35:58.939Z,10.30
2018-07-06T08:36:58.967Z,9.00
2018-07-06T08:37:58.990Z,9.60
2018-07-06T08:38:59.016Z,8.60
2018-07-06T08:39:59.164Z,7.90
2018-07-06T08:40:59.063Z,9.30
2018-07-06T08:41:59.088Z,8.50
2018-07-06T08:42:59.111Z,10.80
2018-07-06T08:43:59.136Z,8.70
2018-07-06T08:44:59.187Z,7.90
2018-07-06T08:45:59.187Z,14.70
2018-07-06T08:46:59.213Z,9.70
2018-07-06T08:47:59.238Z,9.60
2018-07-06T08:48:59.264Z,8.40
2018-07-06T08:49:59.286Z,7.20
2018-07-06T08:50:59.316Z,7.50
2018-07-06T08:51:59.343Z,8.00
2018-07-06T08:52:59.365Z,8.00
2018-07-06T08:53:59.391Z,7.90
2018-07-06T08:54:59.418Z,8.50
2018-07-06T08:55:59.446Z,6.80
2018-07-06T08:56:59.471Z,9.10
2018-07-06T08:57:59.500Z,8.60
2018-07-06T08:58:59.525Z,8.70
2018-07-06T08:59:59.552Z,8.20
2018-07-06T09:00:59.580Z,7.90
2018-07-06T09:01:59.608Z,9.20
2018-07-06T09:02:59.634Z,7.30
2018-07-06T09:03:59.683Z,8.30
2018-07-06T09:04:59.689Z,7.20
2018-07-06T09:05:59.718Z,9.10
2018-07-06T09:06:59.744Z,7.10
2018-07-06T09:07:59.772Z,6.70
2018-07-06T09:08:59.802Z,7.10
2018-07-06T09:09:59.830Z,7.40
2018-07-06T09:10:59.856Z,7.80
2018-07-06T09:11:59.887Z,8.20
2018-07-06T09:12:59.918Z,7.50
2018-07-06T09:13:59.947Z,7.90
2018-07-06T09:14:59.971Z,8.90
2018-07-06T09:15:59.997Z,8.10
2018-07-06T09:17:00.030Z,8.80
2018-07-06T09:18:00.056Z,7.70
2018-07-06T09:19:00.079Z,7.90
2018-07-06T09:20:00.346Z,8.60
2018-07-06T09:21:00.139Z,8.00
2018-07-06T09:22:00.164Z,7.20
2018-07-06T09:23:00.197Z,7.40
2018-07-06T09:24:00.222Z,6.70
2018-07-06T09:25:00.250Z,7.20
2018-07-06T09:26:00.625Z,8.20
2018-07-06T09:27:00.306Z,7.40
2018-07-06T09:28:00.335Z,6.60
2018-07-06T09:29:00.365Z,8.10
2018-07-06T09:30:00.390Z,6.80
2018-07-06T09:31:00.420Z,7.10
2018-07-06T09:32:00.448Z,7.10
2018-07-06T09:33:00.480Z,6.30
2018-07-06T09:34:00.536Z,8.60
2018-07-06T09:35:00.536Z,6.60
2018-07-06T09:36:00.563Z,9.20
2018-07-06T09:37:00.592Z,8.70
2018-07-06T09:38:00.621Z,6.60
2018-07-06T09:39:00.670Z,8.60
2018-07-06T09:40:00.679Z,6.50
2018-07-06T09:41:00.714Z,6.10
2018-07-06T09:42:00.732Z,6.50
2018-07-06T09:43:00.762Z,5.30
2018-07-06T09:44:00.790Z,6.00
2018-07-06T09:45:00.942Z,5.80
2018-07-06T09:46:00.851Z,5.60
2018-07-06T09:47:00.881Z,5.80
2018-07-06T09:48:00.909Z,5.30
2018-07-06T09:49:00.937Z,5.70
2018-07-06T09:50:00.966Z,5.80
2018-07-06T09:51:01.048Z,5.70
2018-07-06T09:52:01.076Z,6.20
2018-07-06T09:53:01.052Z,4.80
2018-07-06T09:54:01.083Z,5.80
2018-07-06T09:55:01.111Z,7.90
2018-07-06T09:56:01.144Z,6.30
2018-07-06T09:57:01.174Z,5.70
2018-07-06T09:58:01.212Z,5.60
2018-07-06T09:59:01.234Z,5.40
2018-07-06T10:00:01.262Z,6.00
2018-07-06T10:01:01.294Z,5.20
2018-07-06T10:02:01.323Z,6.80
2018-07-06T10:03:01.353Z,5.80
2018-07-06T10:04:01.380Z,5.70
2018-07-06T10:05:01.415Z,6.30
2018-07-06T10:06:01.441Z,5.80
2018-07-06T10:07:01.475Z,6.10
2018-07-06T10:08:01.501Z,4.50
2018-07-06T10:09:01.542Z,5.70
2018-07-06T10:10:01.562Z,5.40
2018-07-06T10:11:01.639Z,5.50
2018-07-06T10:12:01.628Z,5.20
2018-07-06T10:13:01.656Z,7.60
2018-07-06T10:14:01.683Z,3.90
2018-07-06T10:15:01.714Z,5.90
2018-07-06T10:16:01.748Z,6.10
2018-07-06T10:17:01.778Z,4.80
2018-07-06T10:18:01.809Z,4.70
2018-07-06T10:19:01.842Z,4.50
2018-07-06T10:20:01.872Z,5.00
2018-07-06T10:21:01.901Z,5.40
2018-07-06T10:22:01.929Z,3.60
2018-07-06T10:23:01.962Z,3.80
2018-07-06T10:24:01.993Z,3.90
2018-07-06T10:25:02.025Z,3.30
2018-07-06T10:26:02.055Z,3.70
2018-07-06T10:27:02.087Z,5.00
2018-07-06T10:28:02.114Z,3.40
2018-07-06T10:29:02.152Z,5.00
2018-07-06T10:30:02.177Z,4.60
2018-07-06T10:31:02.208Z,3.90
2018-07-06T10:32:02.238Z,4.80
2018-07-06T10:33:02.290Z,3.50
2018-07-06T10:34:02.300Z,3.30
2018-07-06T10:35:02.331Z,3.90
2018-07-06T10:36:02.366Z,3.30
2018-07-06T10:37:02.394Z,4.30
2018-07-06T10:38:02.427Z,4.30
2018-07-06T10:39:02.457Z,3.40
2018-07-06T10:40:02.592Z,3.70
2018-07-06T10:41:02.522Z,3.20
2018-07-06T10:42:02.552Z,3.50
2018-07-06T10:43:02.582Z,6.70
2018-07-06T10:44:02.616Z,4.80
2018-07-06T10:45:02.647Z,4.00
2018-07-06T10:46:02.677Z,3.00
2018-07-06T10:47:02.709Z,3.10
2018-07-06T10:48:02.744Z,4.10
2018-07-06T10:49:02.772Z,4.80
2018-07-06T10:50:02.800Z,3.10
2018-07-06T10:51:02.832Z,7.70
2018-07-06T10:52:02.867Z,3.70
2018-07-06T10:53:02.898Z,3.10
2018-07-06T10:54:02.927Z,3.50
2018-07-06T10:55:02.957Z,3.60
2018-07-06T10:56:02.988Z,2.90
2018-07-06T10:57:03.027Z,2.70
2018-07-06T10:58:03.054Z,3.10
2018-07-06T10:59:03.087Z,3.10
2018-07-06T11:00:03.118Z,3.30
2018-07-06T11:01:03.150Z,3.00
2018-07-06T11:02:03.179Z,2.80
2018-07-06T11:03:03.212Z,3.00
2018-07-06T11:04:03.244Z,2.80
2018-07-06T11:05:03.318Z,2.80
2018-07-06T11:06:03.303Z,2.60
2018-07-06T11:07:03.338Z,3.30
2018-07-06T11:08:03.368Z,3.10
2018-07-06T11:09:03.417Z,3.10
2018-07-06T11:10:03.430Z,2.20
2018-07-06T11:11:03.459Z,2.60
2018-07-06T11:12:03.494Z,3.90
2018-07-06T11:13:03.525Z,3.80
2018-07-06T11:14:03.553Z,4.50
2018-07-06T11:15:03.589Z,2.00
2018-07-06T11:16:03.617Z,2.70
2018-07-06T11:17:03.652Z,3.90
2018-07-06T11:18:03.681Z,3.60
2018-07-06T11:19:03.765Z,2.20
2018-07-06T11:20:03.741Z,3.40
2018-07-06T11:21:03.772Z,2.80
2018-07-06T11:22:03.812Z,3.90
2018-07-06T11:23:03.838Z,4.20
2018-07-06T11:24:03.873Z,2.70
2018-07-06T11:25:03.952Z,2.80
2018-07-06T11:26:03.931Z,3.30
2018-07-06T11:27:03.962Z,3.00
2018-07-06T11:28:03.991Z,4.00
2018-07-06T11:29:04.022Z,3.60
2018-07-06T11:30:04.056Z,2.50
2018-07-06T11:31:04.087Z,1.90
2018-07-06T11:32:04.129Z,2.60
2018-07-06T11:33:04.147Z,4.50
2018-07-06T11:34:04.178Z,2.30
2018-07-06T11:35:04.211Z,3.90
2018-07-06T11:36:04.241Z,3.10
2018-07-06T11:37:04.272Z,3.90
2018-07-06T11:38:04.375Z,2.50
2018-07-06T11:39:04.336Z,3.10
2018-07-06T11:40:04.366Z,2.10
2018-07-06T11:41:04.398Z,2.00
2018-07-06T11:42:04.429Z,2.40
2018-07-06T11:43:04.459Z,2.60
2018-07-06T11:44:04.493Z,3.10
2018-07-06T11:45:04.652Z,2.80
2018-07-06T11:46:04.551Z,2.70
2018-07-06T11:47:04.584Z,3.20
2018-07-06T11:48:04.615Z,4.00
2018-07-06T11:49:04.647Z,4.20
2018-07-06T11:50:04.679Z,3.50
2018-07-06T11:51:04.710Z,2.70
2018-07-06T11:52:04.738Z,2.00
2018-07-06T11:53:04.770Z,3.50
2018-07-06T11:54:04.805Z,4.60
2018-07-06T11:55:04.835Z,2.50
2018-07-06T11:56:04.925Z,4.30
2018-07-06T11:57:04.895Z,3.40
2018-07-06T11:58:04.925Z,2.80
2018-07-06T11:59:04.960Z,1.90
2018-07-06T12:00:04.987Z,3.10
2018-07-06T12:01:05.020Z,2.50
2018-07-06T12:02:05.052Z,1.80
2018-07-06T12:03:05.083Z,2.80
2018-07-06T12:04:05.282Z,2.20
2018-07-06T12:05:05.143Z,2.10
2018-07-06T12:06:05.174Z,2.00
2018-07-06T12:07:05.205Z,2.90
2018-07-06T12:08:05.239Z,2.70
2018-07-06T12:09:05.268Z,2.70
2018-07-06T12:10:05.298Z,3.40
2018-07-06T12:11:05.331Z,3.90
2018-07-06T12:12:05.359Z,3.20
2018-07-06T12:13:05.392Z,3.80
2018-07-06T12:14:05.423Z,2.10
2018-07-06T12:15:05.455Z,3.40
2018-07-06T12:16:05.482Z,4.30
2018-07-06T12:17:05.516Z,3.40
2018-07-06T12:18:05.546Z,2.30
2018-07-06T12:19:05.580Z,2.60
2018-07-06T12:20:05.606Z,3.90
2018-07-06T12:21:05.719Z,2.10
2018-07-06T12:22:05.666Z,4.40
2018-07-06T12:23:05.699Z,3.70
2018-07-06T12:24:05.730Z,3.60
2018-07-06T12:25:05.758Z,2.60
2018-07-06T12:26:05.787Z,2.90
2018-07-06T12:27:05.816Z,2.30
2018-07-06T12:28:05.850Z,2.10
2018-07-06T12:29:05.893Z,3.90
2018-07-06T12:30:05.906Z,3.50
2018-07-06T12:31:05.936Z,3.80
2018-07-06T12:32:05.968Z,2.60
2018-07-06T12:33:05.996Z,2.80
2018-07-06T12:34:06.025Z,3.40
2018-07-06T12:35:06.063Z,2.90
2018-07-06T12:36:06.088Z,3.00
2018-07-06T12:37:06.114Z,3.20
2018-07-06T12:38:06.143Z,4.20
2018-07-06T12:39:06.176Z,2.90
2018-07-06T12:40:06.203Z,3.00
2018-07-06T12:41:06.271Z,2.40
2018-07-06T12:42:06.263Z,3.40
2018-07-06T12:43:06.290Z,3.00
2018-07-06T12:44:06.319Z,3.10
2018-07-06T12:45:06.348Z,4.90
2018-07-06T12:46:06.380Z,4.00
2018-07-06T12:47:06.447Z,3.70
2018-07-06T12:48:06.436Z,3.70
2018-07-06T12:49:06.465Z,2.40
2018-07-06T12:50:06.493Z,3.60
2018-07-06T12:51:06.520Z,4.00
2018-07-06T12:52:06.549Z,3.10
2018-07-06T12:53:06.580Z,3.60
2018-07-06T12:54:06.611Z,3.10
2018-07-06T12:55:06.632Z,5.90
2018-07-06T12:56:06.663Z,4.90
2018-07-06T12:57:06.692Z,2.50
2018-07-06T12:58:06.727Z,3.10
2018-07-06T12:59:06.744Z,3.20
2018-07-06T13:00:06.775Z,3.70
2018-07-06T13:01:06.802Z,3.50
2018-07-06T13:02:06.828Z,2.50
2018-07-06T13:03:06.858Z,5.50
2018-07-06T13:04:06.891Z,2.80
2018-07-06T13:05:06.916Z,3.90
2018-07-06T13:06:06.943Z,4.20
2018-07-06T13:07:06.970Z,2.80
2018-07-06T13:08:06.998Z,2.40
2018-07-06T13:09:07.026Z,3.40
2018-07-06T13:10:07.050Z,3.60
2018-07-06T13:11:07.081Z,2.80
2018-07-06T13:12:07.109Z,3.40